sensor_id;sensor_type;location;lat;lon;timestamp;P1;durP1;ratioP1;P2;durP2;ratioP2
60306;SDS011;46155;52.364;6.580;2023-03-01T04:00:36;12.60;;;8.70;;
60306;SDS011;46155;52.364;6.580;2023-03-01T04:03:05;12.27;;;8.97;;
60306;SDS011;46155;52.364;6.580;2023-03-01T04:05:31;13.87;;;8.50;;
60306;SDS011;46155;52.364;6.580;2023-03-01T04:07:56;17.40;;;8.43;;
60306;SDS011;46155;52.364;6.580;2023-03-01T04:10:44;11.68;;;7.72;;
60306;SDS011;46155;52.364;6.580;2023-03-01T04:13:11;15.18;;;7.57;;
60306;SDS011;46155;52.364;6.580;2023-03-01T04:15:38;16.40;;;8.70;;
60306;SDS011;46155;52.364;6.580;2023-03-01T04:18:04;12.07;;;8.00;;
60306;SDS011;46155;52.364;6.580;2023-03-01T04:20:31;13.53;;;9.40;;
60306;SDS011;46155;52.364;6.580;2023-03-01T04:23:18;13.60;;;8.33;;
60306;SDS011;46155;52.364;6.580;2023-03-01T04:28:20;24.50;;;9.47;;
60306;SDS011;46155;52.364;6.580;2023-03-01T04:30:55;15.07;;;9.13;;
60306;SDS011;46155;52.364;6.580;2023-03-01T04:33:22;12.40;;;8.90;;
60306;SDS011;46155;52.364;6.580;2023-03-01T04:35:49;14.15;;;9.10;;
60306;SDS011;46155;52.364;6.580;2023-03-01T04:38:16;18.20;;;8.57;;
60306;SDS011;46155;52.364;6.580;2023-03-01T04:40:42;13.70;;;8.02;;
60306;SDS011;46155;52.364;6.580;2023-03-01T04:43:08;14.47;;;8.77;;
60306;SDS011;46155;52.364;6.580;2023-03-01T04:45:34;15.73;;;9.13;;
60306;SDS011;46155;52.364;6.580;2023-03-01T04:48:00;10.30;;;7.60;;
60306;SDS011;46155;52.364;6.580;2023-03-01T04:50:26;14.47;;;8.07;;
60306;SDS011;46155;52.364;6.580;2023-03-01T04:52:52;12.30;;;8.37;;
60306;SDS011;46155;52.364;6.580;2023-03-01T04:55:18;16.80;;;8.33;;
60306;SDS011;46155;52.364;6.580;2023-03-01T04:57:43;13.03;;;8.37;;
60306;SDS011;46155;52.364;6.580;2023-03-01T05:00:13;11.50;;;7.90;;
60306;SDS011;46155;52.364;6.580;2023-03-01T05:05:18;13.87;;;8.97;;
60306;SDS011;46155;52.364;6.580;2023-03-01T05:07:50;14.60;;;7.60;;
60306;SDS011;46155;52.364;6.580;2023-03-01T05:10:23;10.65;;;7.72;;
60306;SDS011;46155;52.364;6.580;2023-03-01T05:12:49;14.20;;;8.60;;
60306;SDS011;46155;52.364;6.580;2023-03-01T05:15:17;10.23;;;7.93;;
60306;SDS011;46155;52.364;6.580;2023-03-01T05:17:43;16.10;;;8.20;;
60306;SDS011;46155;52.364;6.580;2023-03-01T05:20:08;12.87;;;7.00;;
60306;SDS011;46155;52.364;6.580;2023-03-01T05:22:35;13.73;;;8.10;;
60306;SDS011;46155;52.364;6.580;2023-03-01T05:25:01;11.30;;;7.77;;
60306;SDS011;46155;52.364;6.580;2023-03-01T05:27:26;11.90;;;7.85;;
60306;SDS011;46155;52.364;6.580;2023-03-01T05:29:52;10.47;;;7.37;;
60306;SDS011;46155;52.364;6.580;2023-03-01T05:32:17;14.70;;;7.60;;
60306;SDS011;46155;52.364;6.580;2023-03-01T05:34:42;15.80;;;7.93;;
60306;SDS011;46155;52.364;6.580;2023-03-01T05:37:09;11.20;;;7.95;;
60306;SDS011;46155;52.364;6.580;2023-03-01T05:39:34;14.67;;;8.63;;
60306;SDS011;46155;52.364;6.580;2023-03-01T05:42:00;11.77;;;7.40;;
60306;SDS011;46155;52.364;6.580;2023-03-01T05:44:27;16.73;;;7.13;;
60306;SDS011;46155;52.364;6.580;2023-03-01T05:46:54;19.27;;;7.28;;
60306;SDS011;46155;52.364;6.580;2023-03-01T05:49:20;14.85;;;7.75;;
60306;SDS011;46155;52.364;6.580;2023-03-01T05:51:48;10.70;;;7.63;;
60306;SDS011;46155;52.364;6.580;2023-03-01T05:54:16;15.20;;;8.50;;
60306;SDS011;46155;52.364;6.580;2023-03-01T05:56:42;11.20;;;8.00;;
60306;SDS011;46155;52.364;6.580;2023-03-01T05:59:08;14.40;;;8.77;;
60306;SDS011;46155;52.364;6.580;2023-03-01T06:01:34;14.30;;;9.20;;
60306;SDS011;46155;52.364;6.580;2023-03-01T06:04:01;13.20;;;8.20;;
60306;SDS011;46155;52.364;6.580;2023-03-01T06:06:26;18.63;;;11.02;;
60306;SDS011;46155;52.364;6.580;2023-03-01T06:08:52;18.97;;;9.63;;
60306;SDS011;46155;52.364;6.580;2023-03-01T06:11:18;16.17;;;9.45;;
60306;SDS011;46155;52.364;6.580;2023-03-01T06:13:44;16.33;;;9.80;;
60306;SDS011;46155;52.364;6.580;2023-03-01T06:16:10;15.27;;;10.13;;
60306;SDS011;46155;52.364;6.580;2023-03-01T06:18:36;18.53;;;10.70;;
60306;SDS011;46155;52.364;6.580;2023-03-01T06:21:03;20.48;;;10.45;;
60306;SDS011;46155;52.364;6.580;2023-03-01T06:23:29;20.65;;;10.45;;
60306;SDS011;46155;52.364;6.580;2023-03-01T06:25:54;12.13;;;8.90;;
60306;SDS011;46155;52.364;6.580;2023-03-01T06:28:20;19.73;;;9.77;;
60306;SDS011;46155;52.364;6.580;2023-03-01T06:30:45;14.60;;;9.77;;
60306;SDS011;46155;52.364;6.580;2023-03-01T06:33:11;14.97;;;9.47;;
60306;SDS011;46155;52.364;6.580;2023-03-01T06:35:37;28.47;;;9.47;;
60306;SDS011;46155;52.364;6.580;2023-03-01T06:38:03;16.97;;;8.97;;
60306;SDS011;46155;52.364;6.580;2023-03-01T06:40:30;18.33;;;9.82;;
60306;SDS011;46155;52.364;6.580;2023-03-01T06:42:56;16.83;;;8.63;;
60306;SDS011;46155;52.364;6.580;2023-03-01T06:45:23;14.30;;;8.30;;
60306;SDS011;46155;52.364;6.580;2023-03-01T06:47:49;17.58;;;9.13;;
60306;SDS011;46155;52.364;6.580;2023-03-01T06:50:15;20.97;;;10.47;;
60306;SDS011;46155;52.364;6.580;2023-03-01T06:52:42;19.33;;;9.85;;
60306;SDS011;46155;52.364;6.580;2023-03-01T06:55:09;17.23;;;9.80;;
60306;SDS011;46155;52.364;6.580;2023-03-01T06:57:35;17.48;;;10.35;;
60306;SDS011;46155;52.364;6.580;2023-03-01T07:00:01;15.63;;;8.60;;
60306;SDS011;46155;52.364;6.580;2023-03-01T07:02:27;19.25;;;9.55;;
60306;SDS011;46155;52.364;6.580;2023-03-01T07:04:52;16.87;;;11.87;;
60306;SDS011;46155;52.364;6.580;2023-03-01T07:07:18;16.07;;;9.97;;
60306;SDS011;46155;52.364;6.580;2023-03-01T07:09:46;22.90;;;10.47;;
60306;SDS011;46155;52.364;6.580;2023-03-01T07:12:13;19.43;;;10.17;;
60306;SDS011;46155;52.364;6.580;2023-03-01T07:14:38;16.53;;;9.87;;
60306;SDS011;46155;52.364;6.580;2023-03-01T07:17:04;15.63;;;8.73;;
60306;SDS011;46155;52.364;6.580;2023-03-01T07:19:29;15.93;;;10.47;;
60306;SDS011;46155;52.364;6.580;2023-03-01T07:21:54;17.70;;;10.10;;
60306;SDS011;46155;52.364;6.580;2023-03-01T07:24:20;15.03;;;9.37;;
60306;SDS011;46155;52.364;6.580;2023-03-01T07:26:49;14.63;;;9.63;;
60306;SDS011;46155;52.364;6.580;2023-03-01T07:29:15;20.83;;;11.25;;
60306;SDS011;46155;52.364;6.580;2023-03-01T07:31:41;14.80;;;9.43;;
60306;SDS011;46155;52.364;6.580;2023-03-01T07:34:07;18.90;;;10.47;;
60306;SDS011;46155;52.364;6.580;2023-03-01T07:36:32;19.90;;;10.83;;
60306;SDS011;46155;52.364;6.580;2023-03-01T07:38:57;13.70;;;10.07;;
60306;SDS011;46155;52.364;6.580;2023-03-01T07:41:23;20.10;;;10.20;;
60306;SDS011;46155;52.364;6.580;2023-03-01T07:43:48;16.90;;;10.90;;
60306;SDS011;46155;52.364;6.580;2023-03-01T07:46:14;18.90;;;9.97;;
60306;SDS011;46155;52.364;6.580;2023-03-01T07:48:39;18.00;;;10.63;;
60306;SDS011;46155;52.364;6.580;2023-03-01T07:51:05;15.33;;;10.17;;
60306;SDS011;46155;52.364;6.580;2023-03-01T07:53:31;15.33;;;9.83;;
60306;SDS011;46155;52.364;6.580;2023-03-01T07:56:06;14.27;;;9.17;;
60306;SDS011;46155;52.364;6.580;2023-03-01T07:58:36;16.77;;;10.03;;
60306;SDS011;46155;52.364;6.580;2023-03-01T08:01:03;13.80;;;10.60;;
60306;SDS011;46155;52.364;6.580;2023-03-01T08:03:29;15.90;;;9.90;;
60306;SDS011;46155;52.364;6.580;2023-03-01T08:05:55;15.80;;;9.67;;
60306;SDS011;46155;52.364;6.580;2023-03-01T08:08:20;22.03;;;9.73;;
60306;SDS011;46155;52.364;6.580;2023-03-01T08:10:45;15.40;;;8.07;;
60306;SDS011;46155;52.364;6.580;2023-03-01T08:13:11;13.23;;;8.30;;
60306;SDS011;46155;52.364;6.580;2023-03-01T08:15:36;13.37;;;8.70;;
60306;SDS011;46155;52.364;6.580;2023-03-01T08:18:01;16.67;;;8.60;;
60306;SDS011;46155;52.364;6.580;2023-03-01T08:20:27;14.47;;;8.40;;
60306;SDS011;46155;52.364;6.580;2023-03-01T08:22:52;16.63;;;7.80;;
60306;SDS011;46155;52.364;6.580;2023-03-01T08:25:17;21.10;;;9.63;;
60306;SDS011;46155;52.364;6.580;2023-03-01T08:27:43;13.63;;;7.50;;
60306;SDS011;46155;52.364;6.580;2023-03-01T08:30:08;14.43;;;9.20;;
60306;SDS011;46155;52.364;6.580;2023-03-01T08:32:37;15.53;;;9.03;;
60306;SDS011;46155;52.364;6.580;2023-03-01T08:35:04;17.47;;;9.00;;
60306;SDS011;46155;52.364;6.580;2023-03-01T08:37:29;13.97;;;8.97;;
60306;SDS011;46155;52.364;6.580;2023-03-01T08:39:57;11.57;;;7.53;;
60306;SDS011;46155;52.364;6.580;2023-03-01T08:42:23;11.30;;;7.07;;
60306;SDS011;46155;52.364;6.580;2023-03-01T08:44:48;12.87;;;7.73;;
60306;SDS011;46155;52.364;6.580;2023-03-01T08:47:13;15.93;;;7.53;;
60306;SDS011;46155;52.364;6.580;2023-03-01T08:49:39;12.67;;;8.10;;
60306;SDS011;46155;52.364;6.580;2023-03-01T08:52:04;11.50;;;8.07;;
60306;SDS011;46155;52.364;6.580;2023-03-01T08:54:29;11.37;;;7.73;;
60306;SDS011;46155;52.364;6.580;2023-03-01T08:56:55;8.90;;;7.50;;
60306;SDS011;46155;52.364;6.580;2023-03-01T08:59:20;13.70;;;7.60;;
60306;SDS011;46155;52.364;6.580;2023-03-01T09:01:46;11.63;;;7.23;;
60306;SDS011;46155;52.364;6.580;2023-03-01T09:04:11;11.17;;;7.03;;
60306;SDS011;46155;52.364;6.580;2023-03-01T09:06:39;7.07;;;5.67;;
60306;SDS011;46155;52.364;6.580;2023-03-01T09:09:05;9.17;;;5.60;;
60306;SDS011;46155;52.364;6.580;2023-03-01T09:11:31;7.93;;;5.43;;
60306;SDS011;46155;52.364;6.580;2023-03-01T09:13:56;11.27;;;5.27;;
60306;SDS011;46155;52.364;6.580;2023-03-01T09:16:22;6.67;;;4.80;;
60306;SDS011;46155;52.364;6.580;2023-03-01T09:18:49;9.17;;;5.47;;
60306;SDS011;46155;52.364;6.580;2023-03-01T09:21:16;11.07;;;4.83;;
60306;SDS011;46155;52.364;6.580;2023-03-01T09:23:43;6.83;;;4.93;;
60306;SDS011;46155;52.364;6.580;2023-03-01T09:26:10;8.50;;;5.40;;
60306;SDS011;46155;52.364;6.580;2023-03-01T09:28:44;6.83;;;5.13;;
60306;SDS011;46155;52.364;6.580;2023-03-01T09:31:10;7.67;;;6.03;;
60306;SDS011;46155;52.364;6.580;2023-03-01T09:33:40;5.17;;;4.67;;
60306;SDS011;46155;52.364;6.580;2023-03-01T09:36:07;8.27;;;5.07;;
60306;SDS011;46155;52.364;6.580;2023-03-01T09:38:35;5.67;;;5.13;;
60306;SDS011;46155;52.364;6.580;2023-03-01T09:41:01;10.10;;;6.00;;
60306;SDS011;46155;52.364;6.580;2023-03-01T09:43:37;7.10;;;5.10;;
60306;SDS011;46155;52.364;6.580;2023-03-01T09:46:18;19.67;;;6.17;;
60306;SDS011;46155;52.364;6.580;2023-03-01T09:48:51;8.00;;;5.57;;
60306;SDS011;46155;52.364;6.580;2023-03-01T09:51:17;5.10;;;4.53;;
60306;SDS011;46155;52.364;6.580;2023-03-01T09:53:46;10.73;;;6.03;;
60306;SDS011;46155;52.364;6.580;2023-03-01T09:56:19;8.20;;;5.67;;
60306;SDS011;46155;52.364;6.580;2023-03-01T10:09:41;7.13;;;4.90;;
60306;SDS011;46155;52.364;6.580;2023-03-01T10:12:18;4.90;;;4.40;;
60306;SDS011;46155;52.364;6.580;2023-03-01T10:14:51;7.40;;;4.83;;
60306;SDS011;46155;52.364;6.580;2023-03-01T10:17:27;7.37;;;4.67;;
60306;SDS011;46155;52.364;6.580;2023-03-01T10:20:05;8.90;;;4.83;;
60306;SDS011;46155;52.364;6.580;2023-03-01T10:22:40;7.87;;;4.97;;
60306;SDS011;46155;52.364;6.580;2023-03-01T10:25:05;5.30;;;4.37;;
60306;SDS011;46155;52.364;6.580;2023-03-01T10:27:34;7.10;;;5.47;;
60306;SDS011;46155;52.364;6.580;2023-03-01T10:30:44;6.37;;;4.53;;
60306;SDS011;46155;52.364;6.580;2023-03-01T10:33:39;8.50;;;5.17;;
60306;SDS011;46155;52.364;6.580;2023-03-01T10:36:00;5.57;;;5.07;;
60306;SDS011;46155;52.364;6.580;2023-03-01T10:38:26;6.07;;;4.83;;
60306;SDS011;46155;52.364;6.580;2023-03-01T10:40:56;10.87;;;5.40;;
60306;SDS011;46155;52.364;6.580;2023-03-01T10:43:24;10.10;;;5.63;;
60306;SDS011;46155;52.364;6.580;2023-03-01T10:45:51;11.70;;;6.50;;
60306;SDS011;46155;52.364;6.580;2023-03-01T10:48:21;5.80;;;5.27;;
60306;SDS011;46155;52.364;6.580;2023-03-01T10:51:03;5.47;;;4.97;;
60306;SDS011;46155;52.364;6.580;2023-03-01T10:53:32;6.50;;;4.70;;
60306;SDS011;46155;52.364;6.580;2023-03-01T10:56:07;6.30;;;5.03;;
60306;SDS011;46155;52.364;6.580;2023-03-01T10:58:39;7.70;;;4.83;;
60306;SDS011;46155;52.364;6.580;2023-03-01T11:01:24;5.30;;;4.80;;
60306;SDS011;46155;52.364;6.580;2023-03-01T11:06:35;11.10;;;6.40;;
60306;SDS011;46155;52.364;6.580;2023-03-01T11:11:53;9.47;;;5.57;;
60306;SDS011;46155;52.364;6.580;2023-03-01T11:14:27;5.20;;;4.63;;
60306;SDS011;46155;52.364;6.580;2023-03-01T11:17:02;6.97;;;5.10;;
60306;SDS011;46155;52.364;6.580;2023-03-01T11:19:28;5.13;;;4.57;;
60306;SDS011;46155;52.364;6.580;2023-03-01T11:30:00;7.73;;;5.40;;
60306;SDS011;46155;52.364;6.580;2023-03-01T11:32:28;5.73;;;4.90;;
60306;SDS011;46155;52.364;6.580;2023-03-01T11:35:04;7.20;;;5.37;;
60306;SDS011;46155;52.364;6.580;2023-03-01T11:40:37;6.70;;;6.00;;
60306;SDS011;46155;52.364;6.580;2023-03-01T11:43:11;8.60;;;5.90;;
60306;SDS011;46155;52.364;6.580;2023-03-01T11:45:47;6.73;;;5.43;;
60306;SDS011;46155;52.364;6.580;2023-03-01T11:51:46;7.23;;;5.03;;
60306;SDS011;46155;52.364;6.580;2023-03-01T12:09:07;4.70;;;4.20;;
60306;SDS011;46155;52.364;6.580;2023-03-01T12:11:42;6.77;;;5.30;;
60306;SDS011;46155;52.364;6.580;2023-03-01T12:22:57;6.13;;;5.30;;
60306;SDS011;46155;52.364;6.580;2023-03-01T12:28:52;9.37;;;5.23;;
60306;SDS011;46155;52.364;6.580;2023-03-01T12:34:08;5.63;;;4.87;;
60306;SDS011;46155;52.364;6.580;2023-03-01T12:45:26;7.57;;;6.07;;
60306;SDS011;46155;52.364;6.580;2023-03-01T12:48:14;6.10;;;5.37;;
60306;SDS011;46155;52.364;6.580;2023-03-01T12:51:14;8.13;;;5.70;;
60306;SDS011;46155;52.364;6.580;2023-03-01T12:53:44;5.97;;;5.33;;
60306;SDS011;46155;52.364;6.580;2023-03-01T12:56:15;7.10;;;5.83;;
60306;SDS011;46155;52.364;6.580;2023-03-01T12:59:03;6.53;;;5.57;;
60306;SDS011;46155;52.364;6.580;2023-03-01T13:01:41;9.37;;;5.87;;
60306;SDS011;46155;52.364;6.580;2023-03-01T13:04:18;7.23;;;5.60;;
60306;SDS011;46155;52.364;6.580;2023-03-01T13:09:59;7.80;;;5.83;;
60306;SDS011;46155;52.364;6.580;2023-03-01T13:17:47;5.97;;;5.37;;
60306;SDS011;46155;52.364;6.580;2023-03-01T13:20:18;7.40;;;4.90;;
60306;SDS011;46155;52.364;6.580;2023-03-01T13:22:45;8.63;;;5.93;;
60306;SDS011;46155;52.364;6.580;2023-03-01T13:25:21;11.80;;;5.57;;
60306;SDS011;46155;52.364;6.580;2023-03-01T13:27:46;7.07;;;5.63;;
60306;SDS011;46155;52.364;6.580;2023-03-01T13:35:52;7.87;;;6.13;;
60306;SDS011;46155;52.364;6.580;2023-03-01T13:41:11;9.13;;;5.23;;
60306;SDS011;46155;52.364;6.580;2023-03-01T13:43:38;8.40;;;5.03;;
60306;SDS011;46155;52.364;6.580;2023-03-01T13:46:11;4.87;;;4.37;;
60306;SDS011;46155;52.364;6.580;2023-03-01T13:48:44;9.47;;;5.43;;
60306;SDS011;46155;52.364;6.580;2023-03-01T13:51:12;5.73;;;5.10;;
60306;SDS011;46155;52.364;6.580;2023-03-01T13:53:45;6.37;;;5.23;;
60306;SDS011;46155;52.364;6.580;2023-03-01T14:01:26;8.20;;;5.37;;
60306;SDS011;46155;52.364;6.580;2023-03-01T14:03:57;9.43;;;5.20;;
60306;SDS011;46155;52.364;6.580;2023-03-01T14:06:24;12.17;;;5.20;;
60306;SDS011;46155;52.364;6.580;2023-03-01T14:09:00;7.80;;;5.63;;
60306;SDS011;46155;52.364;6.580;2023-03-01T14:12:02;5.00;;;4.53;;
60306;SDS011;46155;52.364;6.580;2023-03-01T14:14:38;7.20;;;4.90;;
60306;SDS011;46155;52.364;6.580;2023-03-01T14:20:09;7.47;;;5.53;;
60306;SDS011;46155;52.364;6.580;2023-03-01T14:22:40;13.97;;;5.97;;
60306;SDS011;46155;52.364;6.580;2023-03-01T14:27:45;5.87;;;5.07;;
60306;SDS011;46155;52.364;6.580;2023-03-01T14:33:01;6.23;;;5.37;;
60306;SDS011;46155;52.364;6.580;2023-03-01T14:35:30;5.13;;;4.63;;
60306;SDS011;46155;52.364;6.580;2023-03-01T14:37:58;10.93;;;5.07;;
60306;SDS011;46155;52.364;6.580;2023-03-01T14:40:25;7.73;;;5.43;;
60306;SDS011;46155;52.364;6.580;2023-03-01T14:43:00;6.97;;;5.37;;
60306;SDS011;46155;52.364;6.580;2023-03-01T14:45:28;6.47;;;5.37;;
60306;SDS011;46155;52.364;6.580;2023-03-01T14:47:55;6.70;;;5.30;;
60306;SDS011;46155;52.364;6.580;2023-03-01T14:50:26;5.73;;;5.07;;
60306;SDS011;46155;52.364;6.580;2023-03-01T14:52:54;6.80;;;5.23;;
60306;SDS011;46155;52.364;6.580;2023-03-01T14:55:30;5.57;;;4.73;;
60306;SDS011;46155;52.364;6.580;2023-03-01T14:57:59;5.83;;;5.20;;
60306;SDS011;46155;52.364;6.580;2023-03-01T15:00:28;7.53;;;5.30;;
60306;SDS011;46155;52.364;6.580;2023-03-01T15:02:56;5.33;;;4.80;;
60306;SDS011;46155;52.364;6.580;2023-03-01T15:05:31;6.77;;;5.47;;
60306;SDS011;46155;52.364;6.580;2023-03-01T15:07:58;8.40;;;4.87;;
60306;SDS011;46155;52.364;6.580;2023-03-01T15:10:27;7.03;;;5.10;;
60306;SDS011;46155;52.364;6.580;2023-03-01T15:12:55;5.80;;;5.07;;
60306;SDS011;46155;52.364;6.580;2023-03-01T15:15:31;7.77;;;5.70;;
60306;SDS011;46155;52.364;6.580;2023-03-01T15:18:18;6.53;;;5.60;;
60306;SDS011;46155;52.364;6.580;2023-03-01T15:20:46;7.37;;;5.40;;
60306;SDS011;46155;52.364;6.580;2023-03-01T15:23:17;11.20;;;6.30;;
60306;SDS011;46155;52.364;6.580;2023-03-01T15:25:45;7.97;;;5.80;;
60306;SDS011;46155;52.364;6.580;2023-03-01T15:28:12;9.60;;;5.23;;
60306;SDS011;46155;52.364;6.580;2023-03-01T15:30:45;8.03;;;5.57;;
60306;SDS011;46155;52.364;6.580;2023-03-01T15:35:49;5.10;;;4.67;;
60306;SDS011;46155;52.364;6.580;2023-03-01T15:38:29;5.27;;;4.67;;
60306;SDS011;46155;52.364;6.580;2023-03-01T15:41:46;7.33;;;4.90;;
60306;SDS011;46155;52.364;6.580;2023-03-01T15:44:16;5.43;;;4.87;;
60306;SDS011;46155;52.364;6.580;2023-03-01T15:46:47;6.90;;;4.97;;
60306;SDS011;46155;52.364;6.580;2023-03-01T15:49:23;9.67;;;5.03;;
60306;SDS011;46155;52.364;6.580;2023-03-01T15:52:17;8.07;;;5.53;;
60306;SDS011;46155;52.364;6.580;2023-03-01T15:54:54;5.97;;;4.53;;
60306;SDS011;46155;52.364;6.580;2023-03-01T15:57:21;10.50;;;4.97;;
60306;SDS011;46155;52.364;6.580;2023-03-01T15:59:46;6.87;;;4.57;;
60306;SDS011;46155;52.364;6.580;2023-03-01T16:02:12;8.37;;;4.40;;
60306;SDS011;46155;52.364;6.580;2023-03-01T16:04:38;5.43;;;4.93;;
60306;SDS011;46155;52.364;6.580;2023-03-01T16:07:04;4.87;;;4.30;;
60306;SDS011;46155;52.364;6.580;2023-03-01T16:09:29;6.07;;;5.20;;
60306;SDS011;46155;52.364;6.580;2023-03-01T16:11:55;7.50;;;4.90;;
60306;SDS011;46155;52.364;6.580;2023-03-01T16:14:20;5.50;;;4.90;;
60306;SDS011;46155;52.364;6.580;2023-03-01T16:16:46;5.87;;;5.17;;
60306;SDS011;46155;52.364;6.580;2023-03-01T16:19:13;6.07;;;5.40;;
60306;SDS011;46155;52.364;6.580;2023-03-01T16:21:38;7.53;;;5.37;;
60306;SDS011;46155;52.364;6.580;2023-03-01T16:24:05;7.13;;;5.27;;
60306;SDS011;46155;52.364;6.580;2023-03-01T16:26:31;10.38;;;6.30;;
60306;SDS011;46155;52.364;6.580;2023-03-01T16:28:57;6.83;;;5.33;;
60306;SDS011;46155;52.364;6.580;2023-03-01T16:31:23;7.37;;;5.23;;
60306;SDS011;46155;52.364;6.580;2023-03-01T16:33:53;8.73;;;5.70;;
60306;SDS011;46155;52.364;6.580;2023-03-01T16:36:20;5.77;;;5.23;;
60306;SDS011;46155;52.364;6.580;2023-03-01T16:38:48;6.90;;;5.57;;
60306;SDS011;46155;52.364;6.580;2023-03-01T16:41:15;6.77;;;5.50;;
60306;SDS011;46155;52.364;6.580;2023-03-01T16:43:42;7.23;;;5.73;;
60306;SDS011;46155;52.364;6.580;2023-03-01T16:46:11;10.60;;;6.13;;
60306;SDS011;46155;52.364;6.580;2023-03-01T16:48:37;6.17;;;5.07;;
60306;SDS011;46155;52.364;6.580;2023-03-01T16:51:03;5.67;;;5.00;;
60306;SDS011;46155;52.364;6.580;2023-03-01T16:53:29;6.80;;;5.47;;
60306;SDS011;46155;52.364;6.580;2023-03-01T16:55:57;7.67;;;4.97;;
60306;SDS011;46155;52.364;6.580;2023-03-01T16:58:24;8.33;;;5.80;;
60306;SDS011;46155;52.364;6.580;2023-03-01T17:00:53;7.70;;;5.40;;
60306;SDS011;46155;52.364;6.580;2023-03-01T17:03:22;9.83;;;6.33;;
60306;SDS011;46155;52.364;6.580;2023-03-01T17:05:49;8.53;;;5.93;;
60306;SDS011;46155;52.364;6.580;2023-03-01T17:08:15;9.83;;;5.80;;
60306;SDS011;46155;52.364;6.580;2023-03-01T17:10:41;8.13;;;5.73;;
60306;SDS011;46155;52.364;6.580;2023-03-01T17:13:07;12.33;;;6.27;;
60306;SDS011;46155;52.364;6.580;2023-03-01T17:15:34;7.57;;;5.33;;
60306;SDS011;46155;52.364;6.580;2023-03-01T17:18:00;9.03;;;6.70;;
60306;SDS011;46155;52.364;6.580;2023-03-01T17:20:26;9.87;;;6.10;;
60306;SDS011;46155;52.364;6.580;2023-03-01T17:22:52;9.63;;;6.60;;
60306;SDS011;46155;52.364;6.580;2023-03-01T17:25:17;12.83;;;7.23;;
60306;SDS011;46155;52.364;6.580;2023-03-01T17:27:43;14.57;;;7.67;;
60306;SDS011;46155;52.364;6.580;2023-03-01T17:30:11;10.60;;;6.83;;
60306;SDS011;46155;52.364;6.580;2023-03-01T17:32:37;12.30;;;7.33;;
60306;SDS011;46155;52.364;6.580;2023-03-01T17:35:03;13.43;;;7.60;;
60306;SDS011;46155;52.364;6.580;2023-03-01T17:37:28;12.37;;;8.37;;
60306;SDS011;46155;52.364;6.580;2023-03-01T17:39:54;14.43;;;8.50;;
60306;SDS011;46155;52.364;6.580;2023-03-01T17:42:19;13.03;;;7.50;;
60306;SDS011;46155;52.364;6.580;2023-03-01T17:44:44;12.80;;;9.07;;
60306;SDS011;46155;52.364;6.580;2023-03-01T17:47:10;11.57;;;7.70;;
60306;SDS011;46155;52.364;6.580;2023-03-01T17:49:35;15.07;;;8.10;;
60306;SDS011;46155;52.364;6.580;2023-03-01T17:52:00;11.47;;;8.60;;
60306;SDS011;46155;52.364;6.580;2023-03-01T17:54:26;8.87;;;7.70;;
60306;SDS011;46155;52.364;6.580;2023-03-01T17:56:51;10.50;;;7.53;;
60306;SDS011;46155;52.364;6.580;2023-03-01T17:59:17;13.97;;;7.53;;
60306;SDS011;46155;52.364;6.580;2023-03-01T18:01:43;14.23;;;8.53;;
60306;SDS011;46155;52.364;6.580;2023-03-01T18:04:09;13.60;;;9.30;;
60306;SDS011;46155;52.364;6.580;2023-03-01T18:06:34;18.67;;;8.83;;
60306;SDS011;46155;52.364;6.580;2023-03-01T18:09:01;16.27;;;8.60;;
60306;SDS011;46155;52.364;6.580;2023-03-01T18:11:26;14.40;;;8.17;;
60306;SDS011;46155;52.364;6.580;2023-03-01T18:13:52;12.10;;;8.47;;
60306;SDS011;46155;52.364;6.580;2023-03-01T18:16:19;15.30;;;8.83;;
60306;SDS011;46155;52.364;6.580;2023-03-01T18:18:45;15.60;;;9.57;;
60306;SDS011;46155;52.364;6.580;2023-03-01T18:21:11;18.63;;;8.77;;
60306;SDS011;46155;52.364;6.580;2023-03-01T18:23:37;16.77;;;8.40;;
60306;SDS011;46155;52.364;6.580;2023-03-01T18:26:04;15.63;;;8.67;;
60306;SDS011;46155;52.364;6.580;2023-03-01T18:28:32;17.70;;;9.07;;
60306;SDS011;46155;52.364;6.580;2023-03-01T18:30:58;16.93;;;9.73;;
60306;SDS011;46155;52.364;6.580;2023-03-01T18:33:29;16.57;;;10.23;;
60306;SDS011;46155;52.364;6.580;2023-03-01T18:35:55;13.77;;;8.83;;
60306;SDS011;46155;52.364;6.580;2023-03-01T18:38:21;13.53;;;8.40;;
60306;SDS011;46155;52.364;6.580;2023-03-01T18:40:47;21.20;;;9.77;;
60306;SDS011;46155;52.364;6.580;2023-03-01T18:43:12;16.17;;;8.93;;
60306;SDS011;46155;52.364;6.580;2023-03-01T18:45:38;11.97;;;8.50;;
60306;SDS011;46155;52.364;6.580;2023-03-01T18:48:03;16.53;;;8.90;;
60306;SDS011;46155;52.364;6.580;2023-03-01T18:50:28;19.90;;;8.63;;
60306;SDS011;46155;52.364;6.580;2023-03-01T18:52:54;13.00;;;8.27;;
60306;SDS011;46155;52.364;6.580;2023-03-01T18:55:19;16.80;;;8.80;;
60306;SDS011;46155;52.364;6.580;2023-03-01T18:57:45;13.67;;;8.53;;
60306;SDS011;46155;52.364;6.580;2023-03-01T19:00:10;12.00;;;8.30;;
60306;SDS011;46155;52.364;6.580;2023-03-01T19:02:36;23.07;;;9.80;;
60306;SDS011;46155;52.364;6.580;2023-03-01T19:05:02;14.60;;;9.13;;
60306;SDS011;46155;52.364;6.580;2023-03-01T19:07:28;16.47;;;9.07;;
60306;SDS011;46155;52.364;6.580;2023-03-01T19:09:53;16.77;;;9.30;;
60306;SDS011;46155;52.364;6.580;2023-03-01T19:12:18;15.50;;;9.77;;
60306;SDS011;46155;52.364;6.580;2023-03-01T19:14:44;20.23;;;9.93;;
60306;SDS011;46155;52.364;6.580;2023-03-01T19:17:09;22.33;;;10.17;;
60306;SDS011;46155;52.364;6.580;2023-03-01T19:19:34;21.13;;;11.07;;
60306;SDS011;46155;52.364;6.580;2023-03-01T19:22:00;16.97;;;9.80;;
60306;SDS011;46155;52.364;6.580;2023-03-01T19:24:26;14.30;;;9.60;;
60306;SDS011;46155;52.364;6.580;2023-03-01T19:26:53;18.93;;;8.53;;
60306;SDS011;46155;52.364;6.580;2023-03-01T19:29:19;16.83;;;7.93;;
60306;SDS011;46155;52.364;6.580;2023-03-01T19:31:45;16.33;;;8.83;;
60306;SDS011;46155;52.364;6.580;2023-03-01T19:34:10;16.50;;;8.53;;
60306;SDS011;46155;52.364;6.580;2023-03-01T19:36:35;13.73;;;7.67;;
60306;SDS011;46155;52.364;6.580;2023-03-01T19:39:01;14.47;;;8.47;;
60306;SDS011;46155;52.364;6.580;2023-03-01T19:41:28;12.90;;;8.47;;
60306;SDS011;46155;52.364;6.580;2023-03-01T19:43:54;15.27;;;9.10;;
60306;SDS011;46155;52.364;6.580;2023-03-01T19:46:21;12.73;;;8.27;;
60306;SDS011;46155;52.364;6.580;2023-03-01T19:48:46;19.83;;;9.57;;
60306;SDS011;46155;52.364;6.580;2023-03-01T19:51:12;13.67;;;8.17;;
60306;SDS011;46155;52.364;6.580;2023-03-01T19:53:38;15.70;;;8.37;;
60306;SDS011;46155;52.364;6.580;2023-03-01T19:56:04;12.63;;;8.33;;
60306;SDS011;46155;52.364;6.580;2023-03-01T19:58:31;17.23;;;9.33;;
60306;SDS011;46155;52.364;6.580;2023-03-01T20:00:57;13.40;;;9.33;;
60306;SDS011;46155;52.364;6.580;2023-03-01T20:03:28;15.97;;;9.33;;
60306;SDS011;46155;52.364;6.580;2023-03-01T20:05:55;15.80;;;9.67;;
60306;SDS011;46155;52.364;6.580;2023-03-01T20:08:22;12.83;;;8.27;;
60306;SDS011;46155;52.364;6.580;2023-03-01T20:10:48;14.93;;;9.60;;
60306;SDS011;46155;52.364;6.580;2023-03-01T20:13:13;16.60;;;9.43;;
60306;SDS011;46155;52.364;6.580;2023-03-01T20:15:42;23.63;;;10.43;;
60306;SDS011;46155;52.364;6.580;2023-03-01T20:18:08;17.43;;;9.93;;
60306;SDS011;46155;52.364;6.580;2023-03-01T20:20:34;17.87;;;9.77;;
60306;SDS011;46155;52.364;6.580;2023-03-01T20:22:59;17.43;;;10.40;;
60306;SDS011;46155;52.364;6.580;2023-03-01T20:25:25;18.80;;;10.10;;
60306;SDS011;46155;52.364;6.580;2023-03-01T20:27:51;15.80;;;9.97;;
60306;SDS011;46155;52.364;6.580;2023-03-01T20:30:16;21.37;;;11.50;;
60306;SDS011;46155;52.364;6.580;2023-03-01T20:32:42;23.77;;;11.57;;